Suula — OJKZ — position and weather

sailwx.info

Track history (hours):
 
Tides and Currents Weather Stations Pressure Air Temp Water Temp Dewpoint Dewpoint Depression Visibility Wind Speed Wind Dir Waves Ship Positions

Suula

Last reported at 2016-Sep-27 10:32 UTC. Time now 2016-Sep-28 01:50 UTC.
Position N 59°30' E 021°42'.

Length 140 m; draft 6.5 m.

Type: Tanker. MMSI: 230956996.

Date/timePositionNaut miles runAvg speedWind from/ knotsBaromVisibWave heightAir tempDewpointWater temp
2016-Sep-27 10:32N 59°30' E 021°42'126 9.0
2016-Sep-26 20:33N 60°19' E 025°33'0 0.0
2016-Sep-26 19:30N 60°19' E 025°33'0 0.0
2016-Sep-25 21:23N 60°19' E 025°33'23 0.6
2016-Sep-24 09:34N 60°05' E 026°10'40 6.6
2016-Sep-24 03:33N 60°31' E 027°10'0 0.0
2016-Sep-24 02:33N 60°31' E 027°10'0 0.0
2016-Sep-24 01:33N 60°31' E 027°10'0 0.0
2016-Sep-24 00:33N 60°31' E 027°10'0 0.0
2016-Sep-23 19:33N 60°31' E 027°10'0 0.0
2016-Sep-23 17:33N 60°31' E 027°10'0 0.0
2016-Sep-23 16:33N 60°31' E 027°10'0 0.0
2016-Sep-23 15:33N 60°31' E 027°10'0 0.0
2016-Sep-23 13:33N 60°31' E 027°10'0 0.0
2016-Sep-23 09:33N 60°31' E 027°10'0 0.0
2016-Sep-23 06:33N 60°31' E 027°10'0 0.0
2016-Sep-23 04:33N 60°31' E 027°10'0 0.0
2016-Sep-23 03:33N 60°31' E 027°10'0 0.0
2016-Sep-23 02:33N 60°31' E 027°10'0 0.0
2016-Sep-23 01:33N 60°31' E 027°10'0 0.0
2016-Sep-23 00:33N 60°31' E 027°10'0 0.0
2016-Sep-22 23:33N 60°31' E 027°10'20 6.8
2016-Sep-22 20:33N 60°19' E 026°36'59 2.8
2016-Sep-21 23:30N 59°48' E 024°57'1413.4
2016-Sep-21 22:28N 59°45' E 024°30'4013.6
2016-Sep-21 19:30N 59°33' E 023°14'  
2016-Sep-18 02:33N 59°31' E 021°54'5714.4
2016-Sep-17 22:33N 59°43' E 023°46'1714.5
2016-Sep-17 21:25N 59°47' E 024°18'1214.5
2016-Sep-17 20:34N 59°50' E 024°42'  
Track history (hours):
 
Tides and Currents Weather Stations Pressure Air Temp Water Temp Dewpoint Dewpoint Depression Visibility Wind Speed Wind Dir Waves Ship Positions

Suula

Last reported at 2016-Sep-27 10:32 UTC. Time now 2016-Sep-28 01:50 UTC.
Position N 59°30' E 021°42'.

Length 140 m; draft 6.5 m.

Type: Tanker. MMSI: 230956996.

Date/timePositionNaut miles runAvg speedWind from/ knotsBaromVisibWave heightAir tempDewpointWater temp
2016-Sep-27 10:32N 59°30' E 021°42'126 9.0
2016-Sep-26 20:33N 60°19' E 025°33'0 0.0
2016-Sep-26 19:30N 60°19' E 025°33'0 0.0
2016-Sep-25 21:23N 60°19' E 025°33'23 0.6
2016-Sep-24 09:34N 60°05' E 026°10'40 6.6
2016-Sep-24 03:33N 60°31' E 027°10'0 0.0
2016-Sep-24 02:33N 60°31' E 027°10'0 0.0
2016-Sep-24 01:33N 60°31' E 027°10'0 0.0
2016-Sep-24 00:33N 60°31' E 027°10'0 0.0
2016-Sep-23 19:33N 60°31' E 027°10'0 0.0
2016-Sep-23 17:33N 60°31' E 027°10'0 0.0
2016-Sep-23 16:33N 60°31' E 027°10'0 0.0
2016-Sep-23 15:33N 60°31' E 027°10'0 0.0
2016-Sep-23 13:33N 60°31' E 027°10'0 0.0
2016-Sep-23 09:33N 60°31' E 027°10'0 0.0
2016-Sep-23 06:33N 60°31' E 027°10'0 0.0
2016-Sep-23 04:33N 60°31' E 027°10'0 0.0
2016-Sep-23 03:33N 60°31' E 027°10'0 0.0
2016-Sep-23 02:33N 60°31' E 027°10'0 0.0
2016-Sep-23 01:33N 60°31' E 027°10'0 0.0
2016-Sep-23 00:33N 60°31' E 027°10'0 0.0
2016-Sep-22 23:33N 60°31' E 027°10'20 6.8
2016-Sep-22 20:33N 60°19' E 026°36'59 2.8
2016-Sep-21 23:30N 59°48' E 024°57'1413.4
2016-Sep-21 22:28N 59°45' E 024°30'4013.6
2016-Sep-21 19:30N 59°33' E 023°14'  
2016-Sep-18 02:33N 59°31' E 021°54'5714.4
2016-Sep-17 22:33N 59°43' E 023°46'1714.5
2016-Sep-17 21:25N 59°47' E 024°18'1214.5
2016-Sep-17 20:34N 59°50' E 024°42'  

Dump ship's entire track history